sensor_id;sensor_type;location;lat;lon;timestamp;temperature;humidity
48836;DHT22;62581;47.342;7.908;2023-05-16T00:01:59;12.00;99.90
48836;DHT22;62581;47.342;7.908;2023-05-16T00:04:29;12.00;99.90
48836;DHT22;62581;47.342;7.908;2023-05-16T00:06:57;12.00;99.90
48836;DHT22;62581;47.342;7.908;2023-05-16T00:09:24;12.00;99.90
48836;DHT22;62581;47.342;7.908;2023-05-16T00:11:51;12.00;99.90
48836;DHT22;62581;47.342;7.908;2023-05-16T00:14:18;12.00;99.90
48836;DHT22;62581;47.342;7.908;2023-05-16T00:16:46;12.00;99.90
48836;DHT22;62581;47.342;7.908;2023-05-16T00:19:13;12.00;99.90
48836;DHT22;62581;47.342;7.908;2023-05-16T00:21:41;12.00;99.90
48836;DHT22;62581;47.342;7.908;2023-05-16T00:24:09;11.90;99.90
48836;DHT22;62581;47.342;7.908;2023-05-16T00:26:36;11.90;99.90
48836;DHT22;62581;47.342;7.908;2023-05-16T00:29:03;11.90;99.90
48836;DHT22;62581;47.342;7.908;2023-05-16T00:31:30;11.90;99.90
48836;DHT22;62581;47.342;7.908;2023-05-16T00:33:57;11.90;99.90
48836;DHT22;62581;47.342;7.908;2023-05-16T00:36:24;12.00;99.90
48836;DHT22;62581;47.342;7.908;2023-05-16T00:38:52;12.00;99.90
48836;DHT22;62581;47.342;7.908;2023-05-16T00:41:19;11.90;99.90
48836;DHT22;62581;47.342;7.908;2023-05-16T00:43:46;11.90;99.90
48836;DHT22;62581;47.342;7.908;2023-05-16T00:46:13;11.90;99.90
48836;DHT22;62581;47.342;7.908;2023-05-16T00:48:40;11.90;99.90
48836;DHT22;62581;47.342;7.908;2023-05-16T00:51:07;11.90;99.90
48836;DHT22;62581;47.342;7.908;2023-05-16T00:53:34;11.90;99.90
48836;DHT22;62581;47.342;7.908;2023-05-16T00:56:04;11.80;99.90
48836;DHT22;62581;47.342;7.908;2023-05-16T00:58:32;11.80;99.90
48836;DHT22;62581;47.342;7.908;2023-05-16T01:00:59;11.70;99.90
48836;DHT22;62581;47.342;7.908;2023-05-16T01:03:28;11.70;99.90
48836;DHT22;62581;47.342;7.908;2023-05-16T01:05:56;11.70;99.90
48836;DHT22;62581;47.342;7.908;2023-05-16T01:08:23;11.70;99.90
48836;DHT22;62581;47.342;7.908;2023-05-16T01:10:59;11.60;99.90
48836;DHT22;62581;47.342;7.908;2023-05-16T01:13:35;11.60;99.90
48836;DHT22;62581;47.342;7.908;2023-05-16T01:16:09;11.60;99.90
48836;DHT22;62581;47.342;7.908;2023-05-16T01:18:42;11.70;99.90
48836;DHT22;62581;47.342;7.908;2023-05-16T01:21:14;11.70;99.90
48836;DHT22;62581;47.342;7.908;2023-05-16T01:23:50;11.70;99.90
48836;DHT22;62581;47.342;7.908;2023-05-16T01:26:21;11.80;99.90
48836;DHT22;62581;47.342;7.908;2023-05-16T01:28:50;11.80;99.90
48836;DHT22;62581;47.342;7.908;2023-05-16T01:31:17;11.80;99.90
48836;DHT22;62581;47.342;7.908;2023-05-16T01:33:44;11.80;99.90
48836;DHT22;62581;47.342;7.908;2023-05-16T01:36:19;11.80;99.90
48836;DHT22;62581;47.342;7.908;2023-05-16T01:39:01;11.80;99.90
48836;DHT22;62581;47.342;7.908;2023-05-16T01:41:42;11.90;99.90
48836;DHT22;62581;47.342;7.908;2023-05-16T01:44:17;11.90;99.90
48836;DHT22;62581;47.342;7.908;2023-05-16T01:46:48;11.90;99.90
48836;DHT22;62581;47.342;7.908;2023-05-16T01:49:24;11.90;99.90
48836;DHT22;62581;47.342;7.908;2023-05-16T01:51:56;11.90;99.90
48836;DHT22;62581;47.342;7.908;2023-05-16T01:54:28;11.90;99.90
48836;DHT22;62581;47.342;7.908;2023-05-16T01:56:59;11.90;99.90
48836;DHT22;62581;47.342;7.908;2023-05-16T01:59:26;11.90;99.90
48836;DHT22;62581;47.342;7.908;2023-05-16T02:01:56;12.00;99.90
48836;DHT22;62581;47.342;7.908;2023-05-16T02:04:23;12.00;99.90
48836;DHT22;62581;47.342;7.908;2023-05-16T02:06:50;12.00;99.90
48836;DHT22;62581;47.342;7.908;2023-05-16T02:09:17;11.90;99.90
48836;DHT22;62581;47.342;7.908;2023-05-16T02:11:44;11.90;99.90
48836;DHT22;62581;47.342;7.908;2023-05-16T02:14:13;11.90;99.90
48836;DHT22;62581;47.342;7.908;2023-05-16T02:16:40;11.90;99.90
48836;DHT22;62581;47.342;7.908;2023-05-16T02:19:07;11.90;99.90
48836;DHT22;62581;47.342;7.908;2023-05-16T02:21:34;12.00;99.90
48836;DHT22;62581;47.342;7.908;2023-05-16T02:24:01;11.90;99.90
48836;DHT22;62581;47.342;7.908;2023-05-16T02:26:28;11.90;99.90
48836;DHT22;62581;47.342;7.908;2023-05-16T02:28:55;11.90;99.90
48836;DHT22;62581;47.342;7.908;2023-05-16T02:31:28;11.90;99.90
48836;DHT22;62581;47.342;7.908;2023-05-16T02:33:55;11.90;99.90
48836;DHT22;62581;47.342;7.908;2023-05-16T02:36:22;11.90;99.90
48836;DHT22;62581;47.342;7.908;2023-05-16T02:38:49;11.90;99.90
48836;DHT22;62581;47.342;7.908;2023-05-16T02:41:17;11.90;99.90
48836;DHT22;62581;47.342;7.908;2023-05-16T02:43:44;11.90;99.90
48836;DHT22;62581;47.342;7.908;2023-05-16T02:46:21;11.90;99.90
48836;DHT22;62581;47.342;7.908;2023-05-16T02:48:50;11.90;99.90
48836;DHT22;62581;47.342;7.908;2023-05-16T02:51:16;11.90;99.90
48836;DHT22;62581;47.342;7.908;2023-05-16T02:53:43;11.90;99.90
48836;DHT22;62581;47.342;7.908;2023-05-16T02:56:10;11.90;99.90
48836;DHT22;62581;47.342;7.908;2023-05-16T02:58:37;11.90;99.90
48836;DHT22;62581;47.342;7.908;2023-05-16T03:01:04;11.90;99.90
48836;DHT22;62581;47.342;7.908;2023-05-16T03:03:31;11.90;99.90
48836;DHT22;62581;47.342;7.908;2023-05-16T03:06:01;11.90;99.90
48836;DHT22;62581;47.342;7.908;2023-05-16T03:08:28;11.90;99.90
48836;DHT22;62581;47.342;7.908;2023-05-16T03:10:55;11.90;99.90
48836;DHT22;62581;47.342;7.908;2023-05-16T03:13:22;11.80;99.90
48836;DHT22;62581;47.342;7.908;2023-05-16T03:15:49;11.80;99.90
48836;DHT22;62581;47.342;7.908;2023-05-16T03:18:16;11.70;99.90
48836;DHT22;62581;47.342;7.908;2023-05-16T03:20:43;11.80;99.90
48836;DHT22;62581;47.342;7.908;2023-05-16T03:23:12;11.70;99.90
48836;DHT22;62581;47.342;7.908;2023-05-16T03:25:38;11.60;99.90
48836;DHT22;62581;47.342;7.908;2023-05-16T03:28:07;11.70;99.90
48836;DHT22;62581;47.342;7.908;2023-05-16T03:30:34;11.60;99.90
48836;DHT22;62581;47.342;7.908;2023-05-16T03:33:01;11.60;99.90
48836;DHT22;62581;47.342;7.908;2023-05-16T03:35:29;11.60;99.90
48836;DHT22;62581;47.342;7.908;2023-05-16T03:37:57;11.60;99.90
48836;DHT22;62581;47.342;7.908;2023-05-16T03:40:25;11.60;99.90
48836;DHT22;62581;47.342;7.908;2023-05-16T03:42:52;11.70;99.90
48836;DHT22;62581;47.342;7.908;2023-05-16T03:45:19;11.70;99.90
48836;DHT22;62581;47.342;7.908;2023-05-16T03:47:48;11.70;99.90
48836;DHT22;62581;47.342;7.908;2023-05-16T03:50:15;11.80;99.90
48836;DHT22;62581;47.342;7.908;2023-05-16T03:52:42;11.80;99.90
48836;DHT22;62581;47.342;7.908;2023-05-16T03:55:09;11.80;99.90
48836;DHT22;62581;47.342;7.908;2023-05-16T03:57:40;11.80;99.90
48836;DHT22;62581;47.342;7.908;2023-05-16T04:00:08;11.80;99.90
48836;DHT22;62581;47.342;7.908;2023-05-16T04:02:37;11.80;99.90
48836;DHT22;62581;47.342;7.908;2023-05-16T04:05:06;11.90;99.90
48836;DHT22;62581;47.342;7.908;2023-05-16T04:07:33;11.90;99.90
48836;DHT22;62581;47.342;7.908;2023-05-16T04:10:00;11.90;99.90
48836;DHT22;62581;47.342;7.908;2023-05-16T04:12:27;12.00;99.90
48836;DHT22;62581;47.342;7.908;2023-05-16T04:14:55;12.00;99.90
48836;DHT22;62581;47.342;7.908;2023-05-16T04:17:22;12.10;99.90
48836;DHT22;62581;47.342;7.908;2023-05-16T04:19:49;12.10;99.90
48836;DHT22;62581;47.342;7.908;2023-05-16T04:22:16;12.20;99.90
48836;DHT22;62581;47.342;7.908;2023-05-16T04:24:43;12.20;99.90
48836;DHT22;62581;47.342;7.908;2023-05-16T04:27:10;12.20;99.90
48836;DHT22;62581;47.342;7.908;2023-05-16T04:29:37;12.30;99.90
48836;DHT22;62581;47.342;7.908;2023-05-16T04:32:06;12.30;99.90
48836;DHT22;62581;47.342;7.908;2023-05-16T04:34:33;12.30;99.90
48836;DHT22;62581;47.342;7.908;2023-05-16T04:37:02;12.40;99.90
48836;DHT22;62581;47.342;7.908;2023-05-16T04:39:29;12.40;99.90
48836;DHT22;62581;47.342;7.908;2023-05-16T04:41:56;12.40;99.90
48836;DHT22;62581;47.342;7.908;2023-05-16T04:44:24;12.50;99.90
48836;DHT22;62581;47.342;7.908;2023-05-16T04:46:51;12.50;99.90
48836;DHT22;62581;47.342;7.908;2023-05-16T04:49:20;12.50;99.90
48836;DHT22;62581;47.342;7.908;2023-05-16T04:51:47;12.60;99.90
48836;DHT22;62581;47.342;7.908;2023-05-16T04:54:14;12.60;99.90
48836;DHT22;62581;47.342;7.908;2023-05-16T04:56:41;12.60;99.90
48836;DHT22;62581;47.342;7.908;2023-05-16T04:59:08;12.70;99.90
48836;DHT22;62581;47.342;7.908;2023-05-16T05:01:35;12.70;99.90
48836;DHT22;62581;47.342;7.908;2023-05-16T05:04:02;12.80;99.90
48836;DHT22;62581;47.342;7.908;2023-05-16T05:06:31;12.80;99.90
48836;DHT22;62581;47.342;7.908;2023-05-16T05:08:58;12.80;99.90
48836;DHT22;62581;47.342;7.908;2023-05-16T05:11:25;12.80;99.90
48836;DHT22;62581;47.342;7.908;2023-05-16T05:13:52;12.80;99.90
48836;DHT22;62581;47.342;7.908;2023-05-16T05:16:19;12.90;99.90
48836;DHT22;62581;47.342;7.908;2023-05-16T05:18:46;12.80;99.90
48836;DHT22;62581;47.342;7.908;2023-05-16T05:21:13;12.80;99.90
48836;DHT22;62581;47.342;7.908;2023-05-16T05:23:42;12.80;99.90
48836;DHT22;62581;47.342;7.908;2023-05-16T05:26:09;12.90;99.90
48836;DHT22;62581;47.342;7.908;2023-05-16T05:28:35;12.90;99.90
48836;DHT22;62581;47.342;7.908;2023-05-16T05:31:03;13.10;99.90
48836;DHT22;62581;47.342;7.908;2023-05-16T05:33:31;13.20;99.90
48836;DHT22;62581;47.342;7.908;2023-05-16T05:35:58;13.30;99.90
48836;DHT22;62581;47.342;7.908;2023-05-16T05:38:25;13.30;99.90
48836;DHT22;62581;47.342;7.908;2023-05-16T05:40:53;13.40;99.90
48836;DHT22;62581;47.342;7.908;2023-05-16T05:43:20;13.50;99.90
48836;DHT22;62581;47.342;7.908;2023-05-16T05:45:47;13.50;99.90
48836;DHT22;62581;47.342;7.908;2023-05-16T05:48:14;13.60;99.90
48836;DHT22;62581;47.342;7.908;2023-05-16T05:50:41;13.70;99.90
48836;DHT22;62581;47.342;7.908;2023-05-16T05:53:08;13.80;99.90
48836;DHT22;62581;47.342;7.908;2023-05-16T05:55:35;13.90;99.90
48836;DHT22;62581;47.342;7.908;2023-05-16T05:58:04;13.90;99.90
48836;DHT22;62581;47.342;7.908;2023-05-16T06:00:31;14.00;99.90
48836;DHT22;62581;47.342;7.908;2023-05-16T06:02:58;14.10;99.90
48836;DHT22;62581;47.342;7.908;2023-05-16T06:05:25;14.10;99.90
48836;DHT22;62581;47.342;7.908;2023-05-16T06:07:52;14.20;99.90
48836;DHT22;62581;47.342;7.908;2023-05-16T06:10:18;14.10;99.90
48836;DHT22;62581;47.342;7.908;2023-05-16T06:12:46;14.00;99.90
48836;DHT22;62581;47.342;7.908;2023-05-16T06:15:14;14.00;99.90
48836;DHT22;62581;47.342;7.908;2023-05-16T06:17:41;13.80;99.90
48836;DHT22;62581;47.342;7.908;2023-05-16T06:20:08;13.70;99.90
48836;DHT22;62581;47.342;7.908;2023-05-16T06:22:35;13.50;99.90
48836;DHT22;62581;47.342;7.908;2023-05-16T06:25:02;13.40;99.90
48836;DHT22;62581;47.342;7.908;2023-05-16T06:27:30;13.30;99.90
48836;DHT22;62581;47.342;7.908;2023-05-16T06:29:57;13.30;99.90
48836;DHT22;62581;47.342;7.908;2023-05-16T06:32:25;13.30;99.90
48836;DHT22;62581;47.342;7.908;2023-05-16T06:34:52;13.30;99.90
48836;DHT22;62581;47.342;7.908;2023-05-16T06:37:19;13.40;99.90
48836;DHT22;62581;47.342;7.908;2023-05-16T06:39:48;13.50;99.90
48836;DHT22;62581;47.342;7.908;2023-05-16T06:42:15;13.50;99.90
48836;DHT22;62581;47.342;7.908;2023-05-16T06:44:42;13.40;99.90
48836;DHT22;62581;47.342;7.908;2023-05-16T06:47:09;13.30;99.90
48836;DHT22;62581;47.342;7.908;2023-05-16T06:49:37;13.40;99.90
48836;DHT22;62581;47.342;7.908;2023-05-16T06:52:04;13.40;99.90
48836;DHT22;62581;47.342;7.908;2023-05-16T06:54:31;13.40;99.90
48836;DHT22;62581;47.342;7.908;2023-05-16T06:56:58;13.30;99.90
48836;DHT22;62581;47.342;7.908;2023-05-16T06:59:25;13.30;99.90
48836;DHT22;62581;47.342;7.908;2023-05-16T07:01:52;13.30;99.90
48836;DHT22;62581;47.342;7.908;2023-05-16T07:04:19;13.30;99.90
48836;DHT22;62581;47.342;7.908;2023-05-16T07:06:47;13.20;99.90
48836;DHT22;62581;47.342;7.908;2023-05-16T07:09:14;13.30;99.90
48836;DHT22;62581;47.342;7.908;2023-05-16T07:11:41;13.30;99.90
48836;DHT22;62581;47.342;7.908;2023-05-16T07:14:08;13.30;99.90
48836;DHT22;62581;47.342;7.908;2023-05-16T07:16:35;13.20;99.90
48836;DHT22;62581;47.342;7.908;2023-05-16T07:19:02;13.20;99.90
48836;DHT22;62581;47.342;7.908;2023-05-16T07:21:29;13.20;99.90
48836;DHT22;62581;47.342;7.908;2023-05-16T07:23:57;13.40;99.90
48836;DHT22;62581;47.342;7.908;2023-05-16T07:26:24;13.20;99.90
48836;DHT22;62581;47.342;7.908;2023-05-16T07:28:52;13.20;99.90
48836;DHT22;62581;47.342;7.908;2023-05-16T07:31:19;13.40;99.90
48836;DHT22;62581;47.342;7.908;2023-05-16T07:33:46;13.50;99.90
48836;DHT22;62581;47.342;7.908;2023-05-16T07:36:13;13.60;99.90
48836;DHT22;62581;47.342;7.908;2023-05-16T07:38:40;13.70;99.90
48836;DHT22;62581;47.342;7.908;2023-05-16T07:41:09;13.70;99.90
48836;DHT22;62581;47.342;7.908;2023-05-16T07:43:36;13.80;99.90
48836;DHT22;62581;47.342;7.908;2023-05-16T07:46:04;13.80;99.90
48836;DHT22;62581;47.342;7.908;2023-05-16T07:48:31;13.80;99.90
48836;DHT22;62581;47.342;7.908;2023-05-16T07:50:58;13.80;99.90
48836;DHT22;62581;47.342;7.908;2023-05-16T07:53:25;13.70;99.90
48836;DHT22;62581;47.342;7.908;2023-05-16T07:55:52;13.60;99.90
48836;DHT22;62581;47.342;7.908;2023-05-16T07:58:20;13.30;99.90
48836;DHT22;62581;47.342;7.908;2023-05-16T08:00:48;13.40;99.90
48836;DHT22;62581;47.342;7.908;2023-05-16T08:03:15;13.60;99.90
48836;DHT22;62581;47.342;7.908;2023-05-16T08:05:42;13.60;99.90
48836;DHT22;62581;47.342;7.908;2023-05-16T08:08:09;13.70;99.90
48836;DHT22;62581;47.342;7.908;2023-05-16T08:10:36;13.50;99.90
48836;DHT22;62581;47.342;7.908;2023-05-16T08:13:03;13.50;99.90
48836;DHT22;62581;47.342;7.908;2023-05-16T08:15:31;13.50;99.90
48836;DHT22;62581;47.342;7.908;2023-05-16T08:17:58;13.50;99.90
48836;DHT22;62581;47.342;7.908;2023-05-16T08:20:25;13.40;99.90
48836;DHT22;62581;47.342;7.908;2023-05-16T08:22:52;13.30;99.90
48836;DHT22;62581;47.342;7.908;2023-05-16T08:25:20;13.30;99.90
48836;DHT22;62581;47.342;7.908;2023-05-16T08:27:49;13.30;99.90
48836;DHT22;62581;47.342;7.908;2023-05-16T08:30:16;13.30;99.90
48836;DHT22;62581;47.342;7.908;2023-05-16T08:32:45;13.20;99.90
48836;DHT22;62581;47.342;7.908;2023-05-16T08:35:12;13.20;99.90
48836;DHT22;62581;47.342;7.908;2023-05-16T08:37:39;13.20;99.90
48836;DHT22;62581;47.342;7.908;2023-05-16T08:40:08;13.10;99.90
48836;DHT22;62581;47.342;7.908;2023-05-16T08:42:36;13.20;99.90
48836;DHT22;62581;47.342;7.908;2023-05-16T08:45:04;13.10;99.90
48836;DHT22;62581;47.342;7.908;2023-05-16T08:47:32;13.10;99.90
48836;DHT22;62581;47.342;7.908;2023-05-16T08:50:03;13.10;99.90
48836;DHT22;62581;47.342;7.908;2023-05-16T08:52:30;13.10;99.90
48836;DHT22;62581;47.342;7.908;2023-05-16T08:55:01;13.10;99.90
48836;DHT22;62581;47.342;7.908;2023-05-16T08:57:31;13.20;99.90
48836;DHT22;62581;47.342;7.908;2023-05-16T08:59:59;13.10;99.90
48836;DHT22;62581;47.342;7.908;2023-05-16T09:02:27;13.30;99.90
48836;DHT22;62581;47.342;7.908;2023-05-16T09:04:55;13.30;99.90
48836;DHT22;62581;47.342;7.908;2023-05-16T09:07:25;13.30;99.90
48836;DHT22;62581;47.342;7.908;2023-05-16T09:09:52;13.30;99.90
48836;DHT22;62581;47.342;7.908;2023-05-16T09:12:19;13.40;99.90
48836;DHT22;62581;47.342;7.908;2023-05-16T09:14:46;13.60;99.90
48836;DHT22;62581;47.342;7.908;2023-05-16T09:17:14;13.80;99.90
48836;DHT22;62581;47.342;7.908;2023-05-16T09:19:42;13.70;99.90
48836;DHT22;62581;47.342;7.908;2023-05-16T09:22:11;13.70;99.90
48836;DHT22;62581;47.342;7.908;2023-05-16T09:24:40;13.60;99.90
48836;DHT22;62581;47.342;7.908;2023-05-16T09:27:08;13.50;99.90
48836;DHT22;62581;47.342;7.908;2023-05-16T09:29:35;13.50;99.90
48836;DHT22;62581;47.342;7.908;2023-05-16T09:32:09;13.40;99.90
48836;DHT22;62581;47.342;7.908;2023-05-16T09:34:38;13.20;99.90
48836;DHT22;62581;47.342;7.908;2023-05-16T09:37:05;13.20;99.90
48836;DHT22;62581;47.342;7.908;2023-05-16T09:39:32;13.20;99.90
48836;DHT22;62581;47.342;7.908;2023-05-16T09:42:01;13.20;99.90
48836;DHT22;62581;47.342;7.908;2023-05-16T09:44:28;13.20;99.90
48836;DHT22;62581;47.342;7.908;2023-05-16T09:46:56;13.30;99.90
48836;DHT22;62581;47.342;7.908;2023-05-16T09:49:23;13.40;99.90
48836;DHT22;62581;47.342;7.908;2023-05-16T09:51:51;13.40;99.90
48836;DHT22;62581;47.342;7.908;2023-05-16T09:54:29;13.30;99.90
48836;DHT22;62581;47.342;7.908;2023-05-16T09:56:57;13.40;99.90
48836;DHT22;62581;47.342;7.908;2023-05-16T09:59:27;13.40;99.90
48836;DHT22;62581;47.342;7.908;2023-05-16T10:01:57;13.40;99.90
48836;DHT22;62581;47.342;7.908;2023-05-16T10:04:24;13.50;99.90
48836;DHT22;62581;47.342;7.908;2023-05-16T10:06:53;13.60;99.90
48836;DHT22;62581;47.342;7.908;2023-05-16T10:09:21;13.70;99.90
48836;DHT22;62581;47.342;7.908;2023-05-16T10:11:50;13.70;99.90
48836;DHT22;62581;47.342;7.908;2023-05-16T10:14:18;13.90;99.90
48836;DHT22;62581;47.342;7.908;2023-05-16T10:16:47;14.00;99.90
48836;DHT22;62581;47.342;7.908;2023-05-16T10:19:16;14.20;99.90
48836;DHT22;62581;47.342;7.908;2023-05-16T10:21:50;14.70;99.90
48836;DHT22;62581;47.342;7.908;2023-05-16T10:24:21;15.10;99.90
48836;DHT22;62581;47.342;7.908;2023-05-16T10:26:50;15.30;99.90
48836;DHT22;62581;47.342;7.908;2023-05-16T10:29:18;15.40;99.90
48836;DHT22;62581;47.342;7.908;2023-05-16T10:31:47;15.60;99.90
48836;DHT22;62581;47.342;7.908;2023-05-16T10:34:15;15.60;99.90
48836;DHT22;62581;47.342;7.908;2023-05-16T10:36:43;15.40;99.90
48836;DHT22;62581;47.342;7.908;2023-05-16T10:39:11;15.30;99.90
48836;DHT22;62581;47.342;7.908;2023-05-16T10:41:40;15.10;99.90
48836;DHT22;62581;47.342;7.908;2023-05-16T10:44:12;14.70;99.90
48836;DHT22;62581;47.342;7.908;2023-05-16T10:46:40;14.50;99.90
48836;DHT22;62581;47.342;7.908;2023-05-16T10:49:22;14.40;99.90
48836;DHT22;62581;47.342;7.908;2023-05-16T10:52:11;14.60;99.90
48836;DHT22;62581;47.342;7.908;2023-05-16T10:54:41;14.80;99.90
48836;DHT22;62581;47.342;7.908;2023-05-16T10:57:09;15.10;99.90
48836;DHT22;62581;47.342;7.908;2023-05-16T10:59:42;15.40;99.90
48836;DHT22;62581;47.342;7.908;2023-05-16T11:02:23;15.60;99.90
48836;DHT22;62581;47.342;7.908;2023-05-16T11:04:53;15.50;99.90
48836;DHT22;62581;47.342;7.908;2023-05-16T11:07:23;15.80;99.90
48836;DHT22;62581;47.342;7.908;2023-05-16T11:10:05;15.80;99.90
48836;DHT22;62581;47.342;7.908;2023-05-16T11:12:50;15.50;99.90
48836;DHT22;62581;47.342;7.908;2023-05-16T11:15:22;15.60;99.90
48836;DHT22;62581;47.342;7.908;2023-05-16T11:17:49;15.40;99.90
48836;DHT22;62581;47.342;7.908;2023-05-16T11:20:29;14.80;99.90
48836;DHT22;62581;47.342;7.908;2023-05-16T11:23:22;14.70;99.90
48836;DHT22;62581;47.342;7.908;2023-05-16T11:25:53;14.80;99.90
48836;DHT22;62581;47.342;7.908;2023-05-16T11:28:20;14.90;99.90
48836;DHT22;62581;47.342;7.908;2023-05-16T11:30:48;15.10;99.90
48836;DHT22;62581;47.342;7.908;2023-05-16T11:33:16;15.10;99.90
48836;DHT22;62581;47.342;7.908;2023-05-16T11:35:59;14.90;99.90
48836;DHT22;62581;47.342;7.908;2023-05-16T11:38:29;15.30;99.90
48836;DHT22;62581;47.342;7.908;2023-05-16T11:41:03;15.20;99.90
48836;DHT22;62581;47.342;7.908;2023-05-16T11:43:36;15.30;99.90
48836;DHT22;62581;47.342;7.908;2023-05-16T11:46:04;15.00;99.90
48836;DHT22;62581;47.342;7.908;2023-05-16T11:48:31;14.90;99.90
48836;DHT22;62581;47.342;7.908;2023-05-16T11:50:59;15.00;99.90
48836;DHT22;62581;47.342;7.908;2023-05-16T11:53:26;14.70;99.90
48836;DHT22;62581;47.342;7.908;2023-05-16T11:55:54;14.40;99.90
48836;DHT22;62581;47.342;7.908;2023-05-16T11:58:21;14.40;99.90
48836;DHT22;62581;47.342;7.908;2023-05-16T12:00:49;14.30;99.90
48836;DHT22;62581;47.342;7.908;2023-05-16T12:03:18;14.20;99.90
48836;DHT22;62581;47.342;7.908;2023-05-16T12:05:49;14.30;99.90
48836;DHT22;62581;47.342;7.908;2023-05-16T12:08:19;14.50;99.90
48836;DHT22;62581;47.342;7.908;2023-05-16T12:10:50;14.20;99.90
48836;DHT22;62581;47.342;7.908;2023-05-16T12:13:18;14.30;99.90
48836;DHT22;62581;47.342;7.908;2023-05-16T12:15:46;14.20;99.90
48836;DHT22;62581;47.342;7.908;2023-05-16T12:18:13;13.90;99.90
48836;DHT22;62581;47.342;7.908;2023-05-16T12:20:42;14.00;99.90
48836;DHT22;62581;47.342;7.908;2023-05-16T12:23:12;13.90;99.90
48836;DHT22;62581;47.342;7.908;2023-05-16T12:25:44;13.90;99.90
48836;DHT22;62581;47.342;7.908;2023-05-16T12:28:12;13.70;99.90
48836;DHT22;62581;47.342;7.908;2023-05-16T12:30:41;13.70;99.90
48836;DHT22;62581;47.342;7.908;2023-05-16T12:33:09;13.70;99.90
48836;DHT22;62581;47.342;7.908;2023-05-16T12:35:38;13.60;99.90
48836;DHT22;62581;47.342;7.908;2023-05-16T12:38:06;13.60;99.90
48836;DHT22;62581;47.342;7.908;2023-05-16T12:40:35;13.70;99.90
48836;DHT22;62581;47.342;7.908;2023-05-16T12:43:12;13.20;99.90
48836;DHT22;62581;47.342;7.908;2023-05-16T12:45:39;13.20;99.90
48836;DHT22;62581;47.342;7.908;2023-05-16T12:48:11;13.40;99.90
48836;DHT22;62581;47.342;7.908;2023-05-16T12:50:38;13.60;99.90
48836;DHT22;62581;47.342;7.908;2023-05-16T12:53:10;13.80;99.90
48836;DHT22;62581;47.342;7.908;2023-05-16T12:55:38;13.90;99.90
48836;DHT22;62581;47.342;7.908;2023-05-16T12:58:07;14.00;99.90
48836;DHT22;62581;47.342;7.908;2023-05-16T13:00:34;13.80;99.90
48836;DHT22;62581;47.342;7.908;2023-05-16T13:03:02;13.90;99.90
48836;DHT22;62581;47.342;7.908;2023-05-16T13:05:29;14.20;99.90
48836;DHT22;62581;47.342;7.908;2023-05-16T13:07:56;14.00;99.90
48836;DHT22;62581;47.342;7.908;2023-05-16T13:10:23;14.30;99.90
48836;DHT22;62581;47.342;7.908;2023-05-16T13:12:51;14.40;99.90
48836;DHT22;62581;47.342;7.908;2023-05-16T13:15:19;14.50;99.90
48836;DHT22;62581;47.342;7.908;2023-05-16T13:17:46;14.40;99.90
48836;DHT22;62581;47.342;7.908;2023-05-16T13:20:13;14.50;99.90
48836;DHT22;62581;47.342;7.908;2023-05-16T13:22:41;14.40;99.90
48836;DHT22;62581;47.342;7.908;2023-05-16T13:25:10;14.30;99.90
48836;DHT22;62581;47.342;7.908;2023-05-16T13:27:37;14.20;99.90
48836;DHT22;62581;47.342;7.908;2023-05-16T13:30:05;14.30;99.90
48836;DHT22;62581;47.342;7.908;2023-05-16T13:32:34;14.40;99.90
48836;DHT22;62581;47.342;7.908;2023-05-16T13:35:01;14.30;99.90
48836;DHT22;62581;47.342;7.908;2023-05-16T13:37:28;14.30;99.90
48836;DHT22;62581;47.342;7.908;2023-05-16T13:39:55;14.20;99.90
48836;DHT22;62581;47.342;7.908;2023-05-16T13:42:22;14.20;99.90
48836;DHT22;62581;47.342;7.908;2023-05-16T13:44:49;14.10;99.90
48836;DHT22;62581;47.342;7.908;2023-05-16T13:47:16;14.00;99.90
48836;DHT22;62581;47.342;7.908;2023-05-16T13:49:46;13.80;99.90
48836;DHT22;62581;47.342;7.908;2023-05-16T13:52:13;13.70;99.90
48836;DHT22;62581;47.342;7.908;2023-05-16T13:54:40;13.80;99.90
48836;DHT22;62581;47.342;7.908;2023-05-16T13:57:07;13.70;99.90
48836;DHT22;62581;47.342;7.908;2023-05-16T13:59:34;13.40;99.90
48836;DHT22;62581;47.342;7.908;2023-05-16T14:02:01;13.50;99.90
48836;DHT22;62581;47.342;7.908;2023-05-16T14:04:28;13.70;99.90
48836;DHT22;62581;47.342;7.908;2023-05-16T14:06:57;14.10;99.90
48836;DHT22;62581;47.342;7.908;2023-05-16T14:09:24;14.40;99.90
48836;DHT22;62581;47.342;7.908;2023-05-16T14:11:50;14.70;99.90
48836;DHT22;62581;47.342;7.908;2023-05-16T14:14:17;14.50;99.90
48836;DHT22;62581;47.342;7.908;2023-05-16T14:16:44;14.20;99.90
48836;DHT22;62581;47.342;7.908;2023-05-16T14:19:11;13.80;99.90
48836;DHT22;62581;47.342;7.908;2023-05-16T14:21:38;14.00;99.90
48836;DHT22;62581;47.342;7.908;2023-05-16T14:24:07;14.00;99.90
48836;DHT22;62581;47.342;7.908;2023-05-16T14:26:34;14.10;99.90
48836;DHT22;62581;47.342;7.908;2023-05-16T14:29:01;14.00;99.90
48836;DHT22;62581;47.342;7.908;2023-05-16T14:31:28;14.20;99.90
48836;DHT22;62581;47.342;7.908;2023-05-16T14:33:55;14.50;99.90
48836;DHT22;62581;47.342;7.908;2023-05-16T14:36:23;14.40;99.90
48836;DHT22;62581;47.342;7.908;2023-05-16T14:38:50;14.60;99.90
48836;DHT22;62581;47.342;7.908;2023-05-16T14:41:18;14.90;99.90
48836;DHT22;62581;47.342;7.908;2023-05-16T14:43:45;15.20;99.90
48836;DHT22;62581;47.342;7.908;2023-05-16T14:46:12;15.30;99.90
48836;DHT22;62581;47.342;7.908;2023-05-16T14:48:39;15.40;99.90
48836;DHT22;62581;47.342;7.908;2023-05-16T14:51:06;15.30;99.90
48836;DHT22;62581;47.342;7.908;2023-05-16T14:53:33;15.10;99.90
48836;DHT22;62581;47.342;7.908;2023-05-16T14:56:01;15.20;99.90
48836;DHT22;62581;47.342;7.908;2023-05-16T14:58:30;15.20;99.90
48836;DHT22;62581;47.342;7.908;2023-05-16T15:00:57;15.00;99.90
48836;DHT22;62581;47.342;7.908;2023-05-16T15:03:24;14.70;99.90
48836;DHT22;62581;47.342;7.908;2023-05-16T15:05:51;14.30;99.90
48836;DHT22;62581;47.342;7.908;2023-05-16T15:08:19;13.80;99.90
48836;DHT22;62581;47.342;7.908;2023-05-16T15:10:46;13.50;99.90
48836;DHT22;62581;47.342;7.908;2023-05-16T15:13:13;13.50;99.90
48836;DHT22;62581;47.342;7.908;2023-05-16T15:15:42;13.60;99.90
48836;DHT22;62581;47.342;7.908;2023-05-16T15:18:08;13.50;99.90
48836;DHT22;62581;47.342;7.908;2023-05-16T15:20:36;13.40;99.90
48836;DHT22;62581;47.342;7.908;2023-05-16T15:23:03;13.50;99.90
48836;DHT22;62581;47.342;7.908;2023-05-16T15:25:30;13.60;99.90
48836;DHT22;62581;47.342;7.908;2023-05-16T15:27:57;13.60;99.90
48836;DHT22;62581;47.342;7.908;2023-05-16T15:30:24;13.40;99.90
48836;DHT22;62581;47.342;7.908;2023-05-16T15:32:52;13.40;99.90
48836;DHT22;62581;47.342;7.908;2023-05-16T15:35:19;13.10;99.90
48836;DHT22;62581;47.342;7.908;2023-05-16T15:37:46;13.00;99.90